sensor_id;sensor_type;location;lat;lon;timestamp;P1;durP1;ratioP1;P2;durP2;ratioP2
60641;SDS011;46837;52.446;-1.930;2022-12-18T00:00:07;10.78;;;7.36;;
60641;SDS011;46837;52.446;-1.930;2022-12-18T00:02:07;14.16;;;6.82;;
60641;SDS011;46837;52.446;-1.930;2022-12-18T00:03:07;13.42;;;6.56;;
60641;SDS011;46837;52.446;-1.930;2022-12-18T00:04:11;12.94;;;7.00;;
60641;SDS011;46837;52.446;-1.930;2022-12-18T00:05:07;10.32;;;5.96;;
60641;SDS011;46837;52.446;-1.930;2022-12-18T00:06:08;14.60;;;6.44;;
60641;SDS011;46837;52.446;-1.930;2022-12-18T00:07:07;15.98;;;8.36;;
60641;SDS011;46837;52.446;-1.930;2022-12-18T00:08:07;17.44;;;8.14;;
60641;SDS011;46837;52.446;-1.930;2022-12-18T00:09:07;13.60;;;6.66;;
60641;SDS011;46837;52.446;-1.930;2022-12-18T00:10:07;13.58;;;6.98;;
60641;SDS011;46837;52.446;-1.930;2022-12-18T00:11:07;12.86;;;6.76;;
60641;SDS011;46837;52.446;-1.930;2022-12-18T00:12:07;15.14;;;7.58;;
60641;SDS011;46837;52.446;-1.930;2022-12-18T00:13:07;12.50;;;6.60;;
60641;SDS011;46837;52.446;-1.930;2022-12-18T00:14:07;12.16;;;7.68;;
60641;SDS011;46837;52.446;-1.930;2022-12-18T00:15:07;11.72;;;8.74;;
60641;SDS011;46837;52.446;-1.930;2022-12-18T00:16:07;12.16;;;6.78;;
60641;SDS011;46837;52.446;-1.930;2022-12-18T00:17:07;15.70;;;10.80;;
60641;SDS011;46837;52.446;-1.930;2022-12-18T00:18:07;13.86;;;10.50;;
60641;SDS011;46837;52.446;-1.930;2022-12-18T00:19:07;31.40;;;19.96;;
60641;SDS011;46837;52.446;-1.930;2022-12-18T00:20:07;24.46;;;16.26;;
60641;SDS011;46837;52.446;-1.930;2022-12-18T00:21:07;21.10;;;13.64;;
60641;SDS011;46837;52.446;-1.930;2022-12-18T00:22:07;18.96;;;12.84;;
60641;SDS011;46837;52.446;-1.930;2022-12-18T00:23:07;14.94;;;8.88;;
60641;SDS011;46837;52.446;-1.930;2022-12-18T00:24:07;19.24;;;8.86;;
60641;SDS011;46837;52.446;-1.930;2022-12-18T00:25:07;12.56;;;7.92;;
60641;SDS011;46837;52.446;-1.930;2022-12-18T00:26:10;15.00;;;9.28;;
60641;SDS011;46837;52.446;-1.930;2022-12-18T00:27:07;15.04;;;8.48;;
60641;SDS011;46837;52.446;-1.930;2022-12-18T00:28:07;15.18;;;8.14;;
60641;SDS011;46837;52.446;-1.930;2022-12-18T00:29:11;12.72;;;8.26;;
60641;SDS011;46837;52.446;-1.930;2022-12-18T00:30:07;16.44;;;8.16;;
60641;SDS011;46837;52.446;-1.930;2022-12-18T00:31:08;13.80;;;8.56;;
60641;SDS011;46837;52.446;-1.930;2022-12-18T00:32:07;11.70;;;6.54;;
60641;SDS011;46837;52.446;-1.930;2022-12-18T00:33:07;13.04;;;8.38;;
60641;SDS011;46837;52.446;-1.930;2022-12-18T00:34:08;11.14;;;7.38;;
60641;SDS011;46837;52.446;-1.930;2022-12-18T00:35:07;15.76;;;8.74;;
60641;SDS011;46837;52.446;-1.930;2022-12-18T00:36:09;16.50;;;7.70;;
60641;SDS011;46837;52.446;-1.930;2022-12-18T00:37:07;11.86;;;6.86;;
60641;SDS011;46837;52.446;-1.930;2022-12-18T00:38:07;14.08;;;7.44;;
60641;SDS011;46837;52.446;-1.930;2022-12-18T00:39:07;15.78;;;8.06;;
60641;SDS011;46837;52.446;-1.930;2022-12-18T00:40:07;17.06;;;8.00;;
60641;SDS011;46837;52.446;-1.930;2022-12-18T00:41:07;13.28;;;8.50;;
60641;SDS011;46837;52.446;-1.930;2022-12-18T00:42:11;15.08;;;7.46;;
60641;SDS011;46837;52.446;-1.930;2022-12-18T00:43:07;11.94;;;8.36;;
60641;SDS011;46837;52.446;-1.930;2022-12-18T00:44:07;8.88;;;6.96;;
60641;SDS011;46837;52.446;-1.930;2022-12-18T00:45:07;14.76;;;8.66;;
60641;SDS011;46837;52.446;-1.930;2022-12-18T00:46:07;10.92;;;7.28;;
60641;SDS011;46837;52.446;-1.930;2022-12-18T00:47:07;15.70;;;7.00;;
60641;SDS011;46837;52.446;-1.930;2022-12-18T00:48:07;14.90;;;7.20;;
60641;SDS011;46837;52.446;-1.930;2022-12-18T00:49:07;10.12;;;7.86;;
60641;SDS011;46837;52.446;-1.930;2022-12-18T00:50:07;10.66;;;7.40;;
60641;SDS011;46837;52.446;-1.930;2022-12-18T00:51:07;12.08;;;7.20;;
60641;SDS011;46837;52.446;-1.930;2022-12-18T00:52:07;11.82;;;7.08;;
60641;SDS011;46837;52.446;-1.930;2022-12-18T00:53:07;10.74;;;6.52;;
60641;SDS011;46837;52.446;-1.930;2022-12-18T00:54:07;17.60;;;7.68;;
60641;SDS011;46837;52.446;-1.930;2022-12-18T00:55:07;15.76;;;8.30;;
60641;SDS011;46837;52.446;-1.930;2022-12-18T00:56:07;13.40;;;7.44;;
60641;SDS011;46837;52.446;-1.930;2022-12-18T00:57:07;11.08;;;7.40;;
60641;SDS011;46837;52.446;-1.930;2022-12-18T00:58:07;13.68;;;8.36;;
60641;SDS011;46837;52.446;-1.930;2022-12-18T00:59:07;14.68;;;9.26;;
60641;SDS011;46837;52.446;-1.930;2022-12-18T01:00:07;11.10;;;7.72;;
60641;SDS011;46837;52.446;-1.930;2022-12-18T01:01:07;19.02;;;7.88;;
60641;SDS011;46837;52.446;-1.930;2022-12-18T01:02:07;21.26;;;7.98;;
60641;SDS011;46837;52.446;-1.930;2022-12-18T01:03:07;12.78;;;7.86;;
60641;SDS011;46837;52.446;-1.930;2022-12-18T01:04:07;11.24;;;7.64;;
60641;SDS011;46837;52.446;-1.930;2022-12-18T01:05:07;12.04;;;7.98;;
60641;SDS011;46837;52.446;-1.930;2022-12-18T01:06:07;18.64;;;9.42;;
60641;SDS011;46837;52.446;-1.930;2022-12-18T01:07:07;16.56;;;8.90;;
60641;SDS011;46837;52.446;-1.930;2022-12-18T01:08:07;13.00;;;8.78;;
60641;SDS011;46837;52.446;-1.930;2022-12-18T01:09:07;15.58;;;8.58;;
60641;SDS011;46837;52.446;-1.930;2022-12-18T01:10:07;20.46;;;9.02;;
60641;SDS011;46837;52.446;-1.930;2022-12-18T01:11:08;10.70;;;7.98;;
60641;SDS011;46837;52.446;-1.930;2022-12-18T01:12:07;12.10;;;7.72;;
60641;SDS011;46837;52.446;-1.930;2022-12-18T01:13:07;18.94;;;8.36;;
60641;SDS011;46837;52.446;-1.930;2022-12-18T01:14:07;14.92;;;8.84;;
60641;SDS011;46837;52.446;-1.930;2022-12-18T01:15:07;16.58;;;8.78;;
60641;SDS011;46837;52.446;-1.930;2022-12-18T01:16:07;15.76;;;9.10;;
60641;SDS011;46837;52.446;-1.930;2022-12-18T01:17:07;13.04;;;8.68;;
60641;SDS011;46837;52.446;-1.930;2022-12-18T01:18:07;12.78;;;8.28;;
60641;SDS011;46837;52.446;-1.930;2022-12-18T01:19:07;12.54;;;7.76;;
60641;SDS011;46837;52.446;-1.930;2022-12-18T01:20:07;15.54;;;8.70;;
60641;SDS011;46837;52.446;-1.930;2022-12-18T01:21:11;15.16;;;8.94;;
60641;SDS011;46837;52.446;-1.930;2022-12-18T01:22:07;17.84;;;8.78;;
60641;SDS011;46837;52.446;-1.930;2022-12-18T01:23:07;15.84;;;7.82;;
60641;SDS011;46837;52.446;-1.930;2022-12-18T01:24:07;10.00;;;7.52;;
60641;SDS011;46837;52.446;-1.930;2022-12-18T01:25:07;16.44;;;8.00;;
60641;SDS011;46837;52.446;-1.930;2022-12-18T01:26:07;14.76;;;8.10;;
60641;SDS011;46837;52.446;-1.930;2022-12-18T01:27:07;14.06;;;8.96;;
60641;SDS011;46837;52.446;-1.930;2022-12-18T01:28:07;10.88;;;8.00;;
60641;SDS011;46837;52.446;-1.930;2022-12-18T01:29:07;16.86;;;9.74;;
60641;SDS011;46837;52.446;-1.930;2022-12-18T01:30:07;15.74;;;7.94;;
60641;SDS011;46837;52.446;-1.930;2022-12-18T01:31:10;13.56;;;8.18;;
60641;SDS011;46837;52.446;-1.930;2022-12-18T01:32:07;17.74;;;9.42;;
60641;SDS011;46837;52.446;-1.930;2022-12-18T01:33:07;14.62;;;9.82;;
60641;SDS011;46837;52.446;-1.930;2022-12-18T01:34:07;11.94;;;7.92;;
60641;SDS011;46837;52.446;-1.930;2022-12-18T01:35:07;18.56;;;9.58;;
60641;SDS011;46837;52.446;-1.930;2022-12-18T01:36:07;23.74;;;13.00;;
60641;SDS011;46837;52.446;-1.930;2022-12-18T01:37:07;8.60;;;6.76;;
60641;SDS011;46837;52.446;-1.930;2022-12-18T01:38:07;14.96;;;9.64;;
60641;SDS011;46837;52.446;-1.930;2022-12-18T01:39:08;17.44;;;10.20;;
60641;SDS011;46837;52.446;-1.930;2022-12-18T01:40:07;13.26;;;9.08;;
60641;SDS011;46837;52.446;-1.930;2022-12-18T01:41:08;15.66;;;9.14;;
60641;SDS011;46837;52.446;-1.930;2022-12-18T01:43:08;14.28;;;8.04;;
60641;SDS011;46837;52.446;-1.930;2022-12-18T01:44:46;17.82;;;9.46;;
60641;SDS011;46837;52.446;-1.930;2022-12-18T01:46:07;17.16;;;9.40;;
60641;SDS011;46837;52.446;-1.930;2022-12-18T01:47:07;17.98;;;10.26;;
60641;SDS011;46837;52.446;-1.930;2022-12-18T01:48:07;21.28;;;9.24;;
60641;SDS011;46837;52.446;-1.930;2022-12-18T01:49:07;19.20;;;9.40;;
60641;SDS011;46837;52.446;-1.930;2022-12-18T01:50:11;15.28;;;9.80;;
60641;SDS011;46837;52.446;-1.930;2022-12-18T01:51:08;17.94;;;8.64;;
60641;SDS011;46837;52.446;-1.930;2022-12-18T01:52:07;14.90;;;8.94;;
60641;SDS011;46837;52.446;-1.930;2022-12-18T01:53:08;18.48;;;9.58;;
60641;SDS011;46837;52.446;-1.930;2022-12-18T01:54:07;16.88;;;9.30;;
60641;SDS011;46837;52.446;-1.930;2022-12-18T01:55:07;18.64;;;10.06;;
60641;SDS011;46837;52.446;-1.930;2022-12-18T01:56:07;16.64;;;9.08;;
60641;SDS011;46837;52.446;-1.930;2022-12-18T01:57:07;17.78;;;9.26;;
60641;SDS011;46837;52.446;-1.930;2022-12-18T01:58:07;14.42;;;9.98;;
60641;SDS011;46837;52.446;-1.930;2022-12-18T01:59:07;17.68;;;10.48;;
60641;SDS011;46837;52.446;-1.930;2022-12-18T02:00:09;16.84;;;11.62;;
60641;SDS011;46837;52.446;-1.930;2022-12-18T02:01:07;16.78;;;10.38;;
60641;SDS011;46837;52.446;-1.930;2022-12-18T02:02:07;14.38;;;8.92;;
60641;SDS011;46837;52.446;-1.930;2022-12-18T02:03:07;14.56;;;9.20;;
60641;SDS011;46837;52.446;-1.930;2022-12-18T02:05:07;19.22;;;9.84;;
60641;SDS011;46837;52.446;-1.930;2022-12-18T02:06:15;22.96;;;10.92;;
60641;SDS011;46837;52.446;-1.930;2022-12-18T02:08:09;15.04;;;9.54;;
60641;SDS011;46837;52.446;-1.930;2022-12-18T02:09:11;14.84;;;9.50;;
60641;SDS011;46837;52.446;-1.930;2022-12-18T02:10:15;17.56;;;9.42;;
60641;SDS011;46837;52.446;-1.930;2022-12-18T02:11:09;24.86;;;12.96;;
60641;SDS011;46837;52.446;-1.930;2022-12-18T02:12:25;19.52;;;9.92;;
60641;SDS011;46837;52.446;-1.930;2022-12-18T02:13:11;15.70;;;8.76;;
60641;SDS011;46837;52.446;-1.930;2022-12-18T02:14:17;15.16;;;9.74;;
60641;SDS011;46837;52.446;-1.930;2022-12-18T02:15:09;19.92;;;10.08;;
60641;SDS011;46837;52.446;-1.930;2022-12-18T02:17:10;17.22;;;9.60;;
60641;SDS011;46837;52.446;-1.930;2022-12-18T02:18:08;14.58;;;9.26;;
60641;SDS011;46837;52.446;-1.930;2022-12-18T02:21:09;22.96;;;10.68;;
60641;SDS011;46837;52.446;-1.930;2022-12-18T02:27:07;22.94;;;10.26;;
60641;SDS011;46837;52.446;-1.930;2022-12-18T02:28:08;17.48;;;10.78;;
60641;SDS011;46837;52.446;-1.930;2022-12-18T02:30:07;16.82;;;9.94;;
60641;SDS011;46837;52.446;-1.930;2022-12-18T02:31:07;17.20;;;9.78;;
60641;SDS011;46837;52.446;-1.930;2022-12-18T02:32:08;18.12;;;10.80;;
60641;SDS011;46837;52.446;-1.930;2022-12-18T02:33:07;20.92;;;9.72;;
60641;SDS011;46837;52.446;-1.930;2022-12-18T02:34:07;17.62;;;9.98;;
60641;SDS011;46837;52.446;-1.930;2022-12-18T02:35:09;20.80;;;12.40;;
60641;SDS011;46837;52.446;-1.930;2022-12-18T02:36:07;18.38;;;11.30;;
60641;SDS011;46837;52.446;-1.930;2022-12-18T02:37:09;18.82;;;10.38;;
60641;SDS011;46837;52.446;-1.930;2022-12-18T02:38:07;22.58;;;12.38;;
60641;SDS011;46837;52.446;-1.930;2022-12-18T02:39:07;29.42;;;12.16;;
60641;SDS011;46837;52.446;-1.930;2022-12-18T02:40:07;19.40;;;11.04;;
60641;SDS011;46837;52.446;-1.930;2022-12-18T02:41:07;21.16;;;10.64;;
60641;SDS011;46837;52.446;-1.930;2022-12-18T02:42:08;15.90;;;8.90;;
60641;SDS011;46837;52.446;-1.930;2022-12-18T02:43:13;24.24;;;11.58;;
60641;SDS011;46837;52.446;-1.930;2022-12-18T02:44:08;25.18;;;11.08;;
60641;SDS011;46837;52.446;-1.930;2022-12-18T02:45:07;24.72;;;11.92;;
60641;SDS011;46837;52.446;-1.930;2022-12-18T02:47:08;26.90;;;11.72;;
60641;SDS011;46837;52.446;-1.930;2022-12-18T02:48:07;22.30;;;11.18;;
60641;SDS011;46837;52.446;-1.930;2022-12-18T02:51:08;32.04;;;13.56;;
60641;SDS011;46837;52.446;-1.930;2022-12-18T02:53:11;21.78;;;12.24;;
60641;SDS011;46837;52.446;-1.930;2022-12-18T02:54:10;29.36;;;11.80;;
60641;SDS011;46837;52.446;-1.930;2022-12-18T02:55:13;21.62;;;12.30;;
60641;SDS011;46837;52.446;-1.930;2022-12-18T02:56:09;20.46;;;11.50;;
60641;SDS011;46837;52.446;-1.930;2022-12-18T02:58:13;26.32;;;13.14;;
60641;SDS011;46837;52.446;-1.930;2022-12-18T03:00:10;22.38;;;12.60;;
60641;SDS011;46837;52.446;-1.930;2022-12-18T03:01:12;22.70;;;12.40;;
60641;SDS011;46837;52.446;-1.930;2022-12-18T03:02:11;19.36;;;11.78;;
60641;SDS011;46837;52.446;-1.930;2022-12-18T03:03:17;23.56;;;12.80;;
60641;SDS011;46837;52.446;-1.930;2022-12-18T03:04:08;32.86;;;12.90;;
60641;SDS011;46837;52.446;-1.930;2022-12-18T03:05:09;27.40;;;13.68;;
60641;SDS011;46837;52.446;-1.930;2022-12-18T03:07:09;21.24;;;12.56;;
60641;SDS011;46837;52.446;-1.930;2022-12-18T03:08:07;28.48;;;14.68;;
60641;SDS011;46837;52.446;-1.930;2022-12-18T03:09:08;22.34;;;12.62;;
60641;SDS011;46837;52.446;-1.930;2022-12-18T03:10:07;22.80;;;13.20;;
60641;SDS011;46837;52.446;-1.930;2022-12-18T03:11:11;24.24;;;12.64;;
60641;SDS011;46837;52.446;-1.930;2022-12-18T03:14:07;20.96;;;10.74;;
60641;SDS011;46837;52.446;-1.930;2022-12-18T03:15:14;22.02;;;12.82;;
60641;SDS011;46837;52.446;-1.930;2022-12-18T03:16:08;26.00;;;14.56;;
60641;SDS011;46837;52.446;-1.930;2022-12-18T03:17:07;25.82;;;14.42;;
60641;SDS011;46837;52.446;-1.930;2022-12-18T03:18:10;25.08;;;13.00;;
60641;SDS011;46837;52.446;-1.930;2022-12-18T03:19:08;30.92;;;13.82;;
60641;SDS011;46837;52.446;-1.930;2022-12-18T03:20:12;31.82;;;15.32;;
60641;SDS011;46837;52.446;-1.930;2022-12-18T03:21:07;27.50;;;14.48;;
60641;SDS011;46837;52.446;-1.930;2022-12-18T03:22:07;29.10;;;13.46;;
60641;SDS011;46837;52.446;-1.930;2022-12-18T03:23:08;22.54;;;12.22;;
60641;SDS011;46837;52.446;-1.930;2022-12-18T03:24:07;25.36;;;14.68;;
60641;SDS011;46837;52.446;-1.930;2022-12-18T03:25:07;27.52;;;15.20;;
60641;SDS011;46837;52.446;-1.930;2022-12-18T03:26:08;33.76;;;15.56;;
60641;SDS011;46837;52.446;-1.930;2022-12-18T03:27:09;31.08;;;16.46;;
60641;SDS011;46837;52.446;-1.930;2022-12-18T03:28:07;28.62;;;16.30;;
60641;SDS011;46837;52.446;-1.930;2022-12-18T03:29:07;31.18;;;17.86;;
60641;SDS011;46837;52.446;-1.930;2022-12-18T03:30:08;29.32;;;15.76;;
60641;SDS011;46837;52.446;-1.930;2022-12-18T03:31:07;37.30;;;16.86;;
60641;SDS011;46837;52.446;-1.930;2022-12-18T03:34:12;34.82;;;17.30;;
60641;SDS011;46837;52.446;-1.930;2022-12-18T03:35:07;34.10;;;16.86;;
60641;SDS011;46837;52.446;-1.930;2022-12-18T03:36:07;32.52;;;17.72;;
60641;SDS011;46837;52.446;-1.930;2022-12-18T03:37:07;31.38;;;15.72;;
60641;SDS011;46837;52.446;-1.930;2022-12-18T03:38:07;35.44;;;17.84;;
60641;SDS011;46837;52.446;-1.930;2022-12-18T03:39:07;32.92;;;17.38;;
60641;SDS011;46837;52.446;-1.930;2022-12-18T03:40:07;32.84;;;17.56;;
60641;SDS011;46837;52.446;-1.930;2022-12-18T03:46:12;33.90;;;19.06;;
60641;SDS011;46837;52.446;-1.930;2022-12-18T03:47:08;42.34;;;21.28;;
60641;SDS011;46837;52.446;-1.930;2022-12-18T03:51:08;41.16;;;18.34;;
60641;SDS011;46837;52.446;-1.930;2022-12-18T03:52:09;36.62;;;18.54;;
60641;SDS011;46837;52.446;-1.930;2022-12-18T03:54:07;72.90;;;20.22;;
60641;SDS011;46837;52.446;-1.930;2022-12-18T03:55:07;45.26;;;21.16;;
60641;SDS011;46837;52.446;-1.930;2022-12-18T03:56:07;38.20;;;20.66;;
60641;SDS011;46837;52.446;-1.930;2022-12-18T03:57:09;35.04;;;18.68;;
60641;SDS011;46837;52.446;-1.930;2022-12-18T03:58:07;39.28;;;19.40;;
60641;SDS011;46837;52.446;-1.930;2022-12-18T03:59:07;37.06;;;18.48;;
60641;SDS011;46837;52.446;-1.930;2022-12-18T04:00:16;50.80;;;21.74;;
60641;SDS011;46837;52.446;-1.930;2022-12-18T04:01:07;44.92;;;20.34;;
60641;SDS011;46837;52.446;-1.930;2022-12-18T04:02:07;43.86;;;22.62;;
60641;SDS011;46837;52.446;-1.930;2022-12-18T04:03:07;40.02;;;21.90;;
60641;SDS011;46837;52.446;-1.930;2022-12-18T04:04:07;38.40;;;20.42;;
60641;SDS011;46837;52.446;-1.930;2022-12-18T04:05:07;40.70;;;20.98;;
60641;SDS011;46837;52.446;-1.930;2022-12-18T04:06:07;45.52;;;22.80;;
60641;SDS011;46837;52.446;-1.930;2022-12-18T04:07:07;39.56;;;21.76;;
60641;SDS011;46837;52.446;-1.930;2022-12-18T04:08:07;45.98;;;21.10;;
60641;SDS011;46837;52.446;-1.930;2022-12-18T04:09:07;43.86;;;23.16;;
60641;SDS011;46837;52.446;-1.930;2022-12-18T04:10:07;43.24;;;21.02;;
60641;SDS011;46837;52.446;-1.930;2022-12-18T04:11:07;42.50;;;21.80;;
60641;SDS011;46837;52.446;-1.930;2022-12-18T04:12:08;54.22;;;21.96;;
60641;SDS011;46837;52.446;-1.930;2022-12-18T04:13:07;44.28;;;22.34;;
60641;SDS011;46837;52.446;-1.930;2022-12-18T04:14:07;45.12;;;22.64;;
60641;SDS011;46837;52.446;-1.930;2022-12-18T04:15:07;50.98;;;22.54;;
60641;SDS011;46837;52.446;-1.930;2022-12-18T04:16:07;47.04;;;23.98;;
60641;SDS011;46837;52.446;-1.930;2022-12-18T04:17:07;46.44;;;21.20;;
60641;SDS011;46837;52.446;-1.930;2022-12-18T04:18:07;41.90;;;21.92;;
60641;SDS011;46837;52.446;-1.930;2022-12-18T04:19:07;49.82;;;22.62;;
60641;SDS011;46837;52.446;-1.930;2022-12-18T04:20:07;47.86;;;22.38;;
60641;SDS011;46837;52.446;-1.930;2022-12-18T04:21:07;43.16;;;20.86;;
60641;SDS011;46837;52.446;-1.930;2022-12-18T04:22:08;41.28;;;21.44;;
60641;SDS011;46837;52.446;-1.930;2022-12-18T04:23:07;54.72;;;22.24;;
60641;SDS011;46837;52.446;-1.930;2022-12-18T04:24:07;46.48;;;21.98;;
60641;SDS011;46837;52.446;-1.930;2022-12-18T04:25:07;48.70;;;23.40;;
60641;SDS011;46837;52.446;-1.930;2022-12-18T04:26:07;51.22;;;22.00;;
60641;SDS011;46837;52.446;-1.930;2022-12-18T04:27:07;48.06;;;22.52;;
60641;SDS011;46837;52.446;-1.930;2022-12-18T04:28:07;42.90;;;22.26;;
60641;SDS011;46837;52.446;-1.930;2022-12-18T04:29:09;46.04;;;22.82;;
60641;SDS011;46837;52.446;-1.930;2022-12-18T04:30:07;46.88;;;22.32;;
60641;SDS011;46837;52.446;-1.930;2022-12-18T04:31:07;42.56;;;20.88;;
60641;SDS011;46837;52.446;-1.930;2022-12-18T04:32:07;45.04;;;22.84;;
60641;SDS011;46837;52.446;-1.930;2022-12-18T04:33:10;42.74;;;21.84;;
60641;SDS011;46837;52.446;-1.930;2022-12-18T04:34:07;50.08;;;24.48;;
60641;SDS011;46837;52.446;-1.930;2022-12-18T04:35:08;48.22;;;23.04;;
60641;SDS011;46837;52.446;-1.930;2022-12-18T04:36:07;47.16;;;22.64;;
60641;SDS011;46837;52.446;-1.930;2022-12-18T04:37:07;47.68;;;22.80;;
60641;SDS011;46837;52.446;-1.930;2022-12-18T04:38:07;44.68;;;23.98;;
60641;SDS011;46837;52.446;-1.930;2022-12-18T04:39:07;47.42;;;22.94;;
60641;SDS011;46837;52.446;-1.930;2022-12-18T04:40:07;49.74;;;23.02;;
60641;SDS011;46837;52.446;-1.930;2022-12-18T04:41:07;51.28;;;22.96;;
60641;SDS011;46837;52.446;-1.930;2022-12-18T04:42:07;49.78;;;22.42;;
60641;SDS011;46837;52.446;-1.930;2022-12-18T04:43:07;50.20;;;23.72;;
60641;SDS011;46837;52.446;-1.930;2022-12-18T04:44:07;41.52;;;22.56;;
60641;SDS011;46837;52.446;-1.930;2022-12-18T04:45:07;43.50;;;21.24;;
60641;SDS011;46837;52.446;-1.930;2022-12-18T04:46:07;53.28;;;24.18;;
60641;SDS011;46837;52.446;-1.930;2022-12-18T04:47:07;45.42;;;21.94;;
60641;SDS011;46837;52.446;-1.930;2022-12-18T04:48:07;48.24;;;25.28;;
60641;SDS011;46837;52.446;-1.930;2022-12-18T04:49:07;48.66;;;22.56;;
60641;SDS011;46837;52.446;-1.930;2022-12-18T04:50:07;53.98;;;24.26;;
60641;SDS011;46837;52.446;-1.930;2022-12-18T04:51:07;52.34;;;24.82;;
60641;SDS011;46837;52.446;-1.930;2022-12-18T04:52:07;50.92;;;25.10;;
60641;SDS011;46837;52.446;-1.930;2022-12-18T04:53:07;51.20;;;22.78;;
60641;SDS011;46837;52.446;-1.930;2022-12-18T04:54:07;51.60;;;23.10;;
60641;SDS011;46837;52.446;-1.930;2022-12-18T04:55:07;51.46;;;22.56;;
60641;SDS011;46837;52.446;-1.930;2022-12-18T04:56:10;56.06;;;25.24;;
60641;SDS011;46837;52.446;-1.930;2022-12-18T04:57:07;50.22;;;23.62;;
60641;SDS011;46837;52.446;-1.930;2022-12-18T04:58:07;52.94;;;23.06;;
60641;SDS011;46837;52.446;-1.930;2022-12-18T04:59:07;46.36;;;23.28;;
60641;SDS011;46837;52.446;-1.930;2022-12-18T05:00:07;46.32;;;22.62;;
60641;SDS011;46837;52.446;-1.930;2022-12-18T05:01:07;48.60;;;23.56;;
60641;SDS011;46837;52.446;-1.930;2022-12-18T05:02:07;53.76;;;25.02;;
60641;SDS011;46837;52.446;-1.930;2022-12-18T05:03:08;52.54;;;24.94;;
60641;SDS011;46837;52.446;-1.930;2022-12-18T05:04:07;53.34;;;25.56;;
60641;SDS011;46837;52.446;-1.930;2022-12-18T05:05:07;46.52;;;22.84;;
60641;SDS011;46837;52.446;-1.930;2022-12-18T05:06:07;51.30;;;23.88;;
60641;SDS011;46837;52.446;-1.930;2022-12-18T05:07:07;52.08;;;25.28;;
60641;SDS011;46837;52.446;-1.930;2022-12-18T05:08:07;52.26;;;23.36;;
60641;SDS011;46837;52.446;-1.930;2022-12-18T05:09:07;46.74;;;23.08;;
60641;SDS011;46837;52.446;-1.930;2022-12-18T05:10:07;50.68;;;23.54;;
60641;SDS011;46837;52.446;-1.930;2022-12-18T05:11:08;55.08;;;21.94;;
60641;SDS011;46837;52.446;-1.930;2022-12-18T05:12:07;49.76;;;24.78;;
60641;SDS011;46837;52.446;-1.930;2022-12-18T05:13:07;49.42;;;22.62;;
60641;SDS011;46837;52.446;-1.930;2022-12-18T05:14:07;50.62;;;24.28;;
60641;SDS011;46837;52.446;-1.930;2022-12-18T05:15:07;55.58;;;24.86;;
60641;SDS011;46837;52.446;-1.930;2022-12-18T05:16:07;45.56;;;21.76;;
60641;SDS011;46837;52.446;-1.930;2022-12-18T05:17:07;50.96;;;23.72;;
60641;SDS011;46837;52.446;-1.930;2022-12-18T05:18:07;49.10;;;24.74;;
60641;SDS011;46837;52.446;-1.930;2022-12-18T05:19:07;54.50;;;23.38;;
60641;SDS011;46837;52.446;-1.930;2022-12-18T05:20:07;40.74;;;21.24;;
60641;SDS011;46837;52.446;-1.930;2022-12-18T05:21:07;55.40;;;23.98;;
60641;SDS011;46837;52.446;-1.930;2022-12-18T05:22:07;48.14;;;21.62;;
60641;SDS011;46837;52.446;-1.930;2022-12-18T05:23:07;49.62;;;23.80;;
60641;SDS011;46837;52.446;-1.930;2022-12-18T05:24:07;46.92;;;23.24;;
60641;SDS011;46837;52.446;-1.930;2022-12-18T05:25:07;48.82;;;22.64;;
60641;SDS011;46837;52.446;-1.930;2022-12-18T05:26:07;47.92;;;23.12;;
60641;SDS011;46837;52.446;-1.930;2022-12-18T05:27:07;46.20;;;24.00;;
60641;SDS011;46837;52.446;-1.930;2022-12-18T05:28:07;44.46;;;21.54;;
60641;SDS011;46837;52.446;-1.930;2022-12-18T05:29:07;48.90;;;21.36;;
60641;SDS011;46837;52.446;-1.930;2022-12-18T05:30:07;54.58;;;25.80;;
60641;SDS011;46837;52.446;-1.930;2022-12-18T05:31:07;47.44;;;22.66;;
60641;SDS011;46837;52.446;-1.930;2022-12-18T05:32:07;54.90;;;24.94;;
60641;SDS011;46837;52.446;-1.930;2022-12-18T05:33:07;46.78;;;24.42;;
60641;SDS011;46837;52.446;-1.930;2022-12-18T05:34:07;45.84;;;22.30;;
60641;SDS011;46837;52.446;-1.930;2022-12-18T05:35:07;53.46;;;25.02;;
60641;SDS011;46837;52.446;-1.930;2022-12-18T05:36:07;45.36;;;22.44;;
60641;SDS011;46837;52.446;-1.930;2022-12-18T05:37:07;52.68;;;23.86;;
60641;SDS011;46837;52.446;-1.930;2022-12-18T05:38:07;42.46;;;24.76;;
60641;SDS011;46837;52.446;-1.930;2022-12-18T05:39:07;49.36;;;24.86;;
60641;SDS011;46837;52.446;-1.930;2022-12-18T05:40:07;42.98;;;22.76;;
60641;SDS011;46837;52.446;-1.930;2022-12-18T05:41:09;51.60;;;23.66;;
60641;SDS011;46837;52.446;-1.930;2022-12-18T05:42:07;46.38;;;24.30;;
60641;SDS011;46837;52.446;-1.930;2022-12-18T05:43:07;44.82;;;23.50;;
60641;SDS011;46837;52.446;-1.930;2022-12-18T05:44:07;45.00;;;22.70;;
60641;SDS011;46837;52.446;-1.930;2022-12-18T05:45:07;53.92;;;25.30;;
60641;SDS011;46837;52.446;-1.930;2022-12-18T05:46:08;45.24;;;23.68;;
60641;SDS011;46837;52.446;-1.930;2022-12-18T05:47:07;46.98;;;23.32;;
60641;SDS011;46837;52.446;-1.930;2022-12-18T05:48:07;51.24;;;26.26;;
60641;SDS011;46837;52.446;-1.930;2022-12-18T05:49:07;48.18;;;23.54;;
60641;SDS011;46837;52.446;-1.930;2022-12-18T05:50:07;48.98;;;24.24;;
60641;SDS011;46837;52.446;-1.930;2022-12-18T05:51:08;50.46;;;24.02;;
60641;SDS011;46837;52.446;-1.930;2022-12-18T05:52:07;52.98;;;23.68;;
60641;SDS011;46837;52.446;-1.930;2022-12-18T05:53:07;48.90;;;24.62;;
60641;SDS011;46837;52.446;-1.930;2022-12-18T05:54:07;47.92;;;23.58;;
60641;SDS011;46837;52.446;-1.930;2022-12-18T05:55:07;51.58;;;24.40;;
60641;SDS011;46837;52.446;-1.930;2022-12-18T05:57:07;45.94;;;22.22;;
60641;SDS011;46837;52.446;-1.930;2022-12-18T05:58:07;45.68;;;22.72;;
60641;SDS011;46837;52.446;-1.930;2022-12-18T05:59:07;52.24;;;25.04;;
60641;SDS011;46837;52.446;-1.930;2022-12-18T06:00:07;52.18;;;24.30;;
60641;SDS011;46837;52.446;-1.930;2022-12-18T06:01:11;47.80;;;26.22;;
60641;SDS011;46837;52.446;-1.930;2022-12-18T06:02:07;48.62;;;24.86;;
60641;SDS011;46837;52.446;-1.930;2022-12-18T06:03:07;52.96;;;25.20;;
60641;SDS011;46837;52.446;-1.930;2022-12-18T06:04:07;48.22;;;23.42;;
60641;SDS011;46837;52.446;-1.930;2022-12-18T06:05:07;53.24;;;26.28;;
60641;SDS011;46837;52.446;-1.930;2022-12-18T06:07:07;49.24;;;25.84;;
60641;SDS011;46837;52.446;-1.930;2022-12-18T06:08:07;44.26;;;22.96;;
60641;SDS011;46837;52.446;-1.930;2022-12-18T06:09:10;51.62;;;24.64;;
60641;SDS011;46837;52.446;-1.930;2022-12-18T06:10:07;48.90;;;25.60;;
60641;SDS011;46837;52.446;-1.930;2022-12-18T06:11:07;52.68;;;26.86;;
60641;SDS011;46837;52.446;-1.930;2022-12-18T06:12:07;52.96;;;24.74;;
60641;SDS011;46837;52.446;-1.930;2022-12-18T06:13:07;51.54;;;25.24;;
60641;SDS011;46837;52.446;-1.930;2022-12-18T06:14:07;50.88;;;25.74;;
60641;SDS011;46837;52.446;-1.930;2022-12-18T06:15:07;54.58;;;25.50;;
60641;SDS011;46837;52.446;-1.930;2022-12-18T06:16:07;55.94;;;26.98;;
60641;SDS011;46837;52.446;-1.930;2022-12-18T06:17:07;50.44;;;26.00;;
60641;SDS011;46837;52.446;-1.930;2022-12-18T06:18:07;46.78;;;25.80;;
60641;SDS011;46837;52.446;-1.930;2022-12-18T06:19:07;45.68;;;23.94;;
60641;SDS011;46837;52.446;-1.930;2022-12-18T06:20:07;50.36;;;23.78;;
60641;SDS011;46837;52.446;-1.930;2022-12-18T06:21:07;50.98;;;26.16;;
60641;SDS011;46837;52.446;-1.930;2022-12-18T06:22:07;48.28;;;25.44;;
60641;SDS011;46837;52.446;-1.930;2022-12-18T06:23:07;46.90;;;23.64;;